Terminal Aerodrome Forecast
Issued by NWS

Home | Current Version | Previous Version | Graphics & Text | Print | Product List | Glossary On
Versions: 1 2 3 4 5 6 7 8 9 10 11 12 13 14 15 16 17 18
000
FTUS43 KOAX 281402 AAA
TAFCDR
TAF AMD
KCDR 281402Z 2814/2912 30012KT P6SM SCT060
     FM281600 30014G25KT P6SM SCT100
     FM290100 22005KT P6SM SCT100=

USA.gov is the U.S. government's official web portal to all federal, state and local government web resources and services.